Time;durP1;ratioP1;P1;durP2;ratioP2;P2;SDS_P1;SDS_P2;PMS_P1;PMS_P2;Temp;Humidity;BMP_temperature;BMP_pressure;BME280_temperature;BME280_humidity;BME280_pressure;Samples;Min_cycle;Max_cycle;Signal;HPM_P1;HPM_P2
2023/11/04 04:05:13;;;;;;;0.30;0.30;;;5.10;99.90;;;;;;5917670;23;20232;-66
2023/11/04 04:07:39;;;;;;;0.30;0.30;;;5.00;99.90;;;;;;4974968;28;20279;-66
2023/11/04 04:10:05;;;;;;;0.30;0.30;;;4.90;99.90;;;;;;4975376;28;20288;-67
2023/11/04 04:12:31;;;;;;;0.30;0.30;;;4.90;99.90;;;;;;4976158;28;20231;-62
2023/11/04 04:14:56;;;;;;;0.40;0.40;;;4.90;99.90;;;;;;4975495;28;20201;-62
2023/11/04 04:17:22;;;;;;;0.30;0.30;;;4.80;99.90;;;;;;4975291;28;20200;-64
2023/11/04 04:19:48;;;;;;;0.30;0.30;;;4.80;99.90;;;;;;4974826;28;20176;-64
2023/11/04 04:22:14;;;;;;;0.38;0.38;;;4.80;99.90;;;;;;4975510;28;20232;-65
2023/11/04 04:24:39;;;;;;;0.30;0.30;;;4.80;99.90;;;;;;4974824;28;20178;-66
2023/11/04 04:27:05;;;;;;;0.40;0.40;;;4.80;99.90;;;;;;4975415;28;20229;-65
2023/11/04 04:29:31;;;;;;;0.40;0.40;;;4.70;99.90;;;;;;4974651;28;20202;-66
2023/11/04 04:31:57;;;;;;;0.30;0.30;;;4.70;99.90;;;;;;4974776;28;20175;-66
2023/11/04 04:34:23;;;;;;;0.30;0.30;;;4.60;99.90;;;;;;4957952;28;20643;-66
2023/11/04 04:36:48;;;;;;;0.30;0.20;;;4.60;99.90;;;;;;4962014;28;20436;-66
2023/11/04 04:39:14;;;;;;;0.30;0.30;;;4.50;99.90;;;;;;4975223;28;20180;-66
2023/11/04 04:41:39;;;;;;;0.30;0.30;;;4.40;99.90;;;;;;4975457;28;20252;-65
2023/11/04 04:44:05;;;;;;;0.30;0.30;;;4.40;99.90;;;;;;4974950;28;20176;-65
2023/11/04 04:46:31;;;;;;;0.30;0.30;;;4.40;99.90;;;;;;4974704;28;20206;-64
2023/11/04 04:48:58;;;;;;;0.30;0.30;;;4.40;99.90;;;;;;4974661;28;20181;-66
2023/11/04 04:51:23;;;;;;;0.30;0.30;;;4.30;99.90;;;;;;4974408;28;20690;-64
2023/11/04 04:53:49;;;;;;;0.30;0.30;;;4.30;99.90;;;;;;4974693;28;20184;-63
2023/11/04 04:56:15;;;;;;;0.30;0.30;;;4.30;99.90;;;;;;4974966;28;20637;-67
2023/11/04 04:58:41;;;;;;;0.30;0.30;;;4.30;99.90;;;;;;4975011;28;20256;-64
2023/11/04 05:01:16;;;;;;;0.30;0.30;;;4.30;99.90;;;;;;4974675;28;20416;-67
2023/11/04 05:03:41;;;;;;;0.40;0.40;;;4.30;99.90;;;;;;4974773;28;20219;-66
2023/11/04 05:06:07;;;;;;;0.30;0.30;;;4.20;99.90;;;;;;4974283;28;20685;-64
2023/11/04 05:08:32;;;;;;;0.30;0.30;;;4.20;99.90;;;;;;4974658;28;20176;-64
2023/11/04 05:10:58;;;;;;;0.30;0.30;;;4.20;99.90;;;;;;4974889;28;20200;-67
2023/11/04 05:13:24;;;;;;;0.35;0.35;;;4.20;99.90;;;;;;4974542;28;20281;-66
2023/11/04 05:15:50;;;;;;;0.30;0.30;;;4.20;99.90;;;;;;4974258;28;20557;-66
2023/11/04 05:18:17;;;;;;;0.30;0.30;;;4.20;99.90;;;;;;4974400;28;20400;-67
2023/11/04 05:20:43;;;;;;;0.30;0.30;;;4.20;99.90;;;;;;4957181;28;20265;-66
2023/11/04 05:23:08;;;;;;;0.30;0.30;;;4.20;99.90;;;;;;4957498;28;20366;-67
2023/11/04 05:25:34;;;;;;;0.30;0.30;;;4.20;99.90;;;;;;4974139;28;20431;-64
2023/11/04 05:28:00;;;;;;;0.30;0.30;;;4.20;99.90;;;;;;4974402;28;20258;-64
2023/11/04 05:30:26;;;;;;;0.30;0.30;;;4.20;99.90;;;;;;4974348;28;20560;-66
2023/11/04 05:32:51;;;;;;;0.30;0.30;;;4.30;99.90;;;;;;4974388;28;20177;-65
2023/11/04 05:35:17;;;;;;;0.30;0.30;;;4.30;99.90;;;;;;4973250;28;20192;-65
2023/11/04 05:37:43;;;;;;;0.30;0.20;;;4.40;99.90;;;;;;4974519;28;20176;-64
2023/11/04 05:40:09;;;;;;;0.40;0.40;;;4.40;99.90;;;;;;4974481;28;20542;-65
2023/11/04 05:42:35;;;;;;;0.40;0.40;;;4.40;99.90;;;;;;4974210;28;20184;-66
2023/11/04 05:45:01;;;;;;;0.30;0.20;;;4.50;99.90;;;;;;4973766;28;20192;-66
2023/11/04 05:47:26;;;;;;;0.30;0.30;;;4.60;99.90;;;;;;4974448;28;20198;-66
2023/11/04 05:49:52;;;;;;;0.30;0.30;;;4.60;99.90;;;;;;4974028;28;20192;-65
2023/11/04 05:52:18;;;;;;;0.50;0.50;;;4.70;99.90;;;;;;4974363;28;20180;-64
2023/11/04 05:54:43;;;;;;;0.30;0.30;;;4.60;99.90;;;;;;4969350;28;20184;-63
2023/11/04 05:57:09;;;;;;;0.30;0.30;;;4.70;99.90;;;;;;4963422;28;20292;-66
2023/11/04 05:59:35;;;;;;;0.30;0.30;;;4.70;99.90;;;;;;4955133;29;20272;-64
2023/11/04 06:02:01;;;;;;;0.30;0.30;;;4.70;99.90;;;;;;4972231;28;20266;-66
2023/11/04 06:04:27;;;;;;;0.30;0.30;;;4.70;99.90;;;;;;4976759;28;20833;-65
2023/11/04 06:06:53;;;;;;;0.30;0.30;;;4.70;99.90;;;;;;4976944;28;20729;-65
2023/11/04 06:09:18;;;;;;;0.30;0.30;;;4.60;99.90;;;;;;4977864;28;20542;-66
2023/11/04 06:11:44;;;;;;;0.30;0.30;;;4.60;99.90;;;;;;4977834;28;20183;-65
2023/11/04 06:14:09;;;;;;;0.30;0.30;;;4.60;99.90;;;;;;4977637;28;20171;-64
2023/11/04 06:16:35;;;;;;;0.30;0.30;;;4.60;99.90;;;;;;4977848;28;20188;-63
2023/11/04 06:19:01;;;;;;;0.30;0.30;;;4.60;99.90;;;;;;4978039;28;20227;-65
2023/11/04 06:21:26;;;;;;;0.30;0.20;;;4.60;99.90;;;;;;4977981;28;20183;-64
2023/11/04 06:23:52;;;;;;;0.30;0.20;;;4.60;99.90;;;;;;4977264;28;20181;-64
2023/11/04 06:26:24;;;;;;;0.30;0.30;;;4.70;99.90;;;;;;4977735;28;20211;-64
2023/11/04 06:28:50;;;;;;;0.30;0.30;;;4.70;99.90;;;;;;4960235;28;20200;-67
2023/11/04 06:31:16;;;;;;;0.30;0.30;;;4.80;99.90;;;;;;4977361;28;20200;-67
2023/11/04 06:33:42;;;;;;;0.30;0.30;;;4.90;99.90;;;;;;4977666;28;20231;-64
2023/11/04 06:36:08;;;;;;;0.47;0.47;;;4.90;99.90;;;;;;4977632;28;20189;-64
2023/11/04 06:38:34;;;;;;;0.30;0.30;;;5.00;99.90;;;;;;4976948;28;20506;-66
2023/11/04 06:41:00;;;;;;;0.30;0.30;;;5.10;99.90;;;;;;4977265;28;20590;-66
2023/11/04 06:43:28;;;;;;;0.30;0.30;;;5.20;99.90;;;;;;4977238;28;20598;-63
2023/11/04 06:45:54;;;;;;;0.38;0.38;;;5.30;99.90;;;;;;4977117;28;20297;-64
2023/11/04 06:48:21;;;;;;;0.30;0.20;;;5.30;99.90;;;;;;4977388;28;20256;-63
2023/11/04 06:50:46;;;;;;;0.30;0.30;;;5.40;99.90;;;;;;4977140;28;20477;-64
2023/11/04 06:53:12;;;;;;;0.30;0.30;;;5.50;99.90;;;;;;4976893;28;20649;-63
2023/11/04 06:55:38;;;;;;;0.30;0.30;;;5.60;99.90;;;;;;4976728;28;20201;-64
2023/11/04 06:58:03;;;;;;;0.30;0.20;;;5.70;99.90;;;;;;4959822;28;20538;-67
2023/11/04 07:00:29;;;;;;;0.30;0.30;;;5.70;99.90;;;;;;4959539;28;20253;-66
2023/11/04 07:02:54;;;;;;;0.30;0.20;;;5.80;99.90;;;;;;4976951;28;20638;-67
2023/11/04 07:05:22;;;;;;;0.30;0.30;;;5.90;99.90;;;;;;4959319;28;20793;-66
2023/11/04 07:07:49;;;;;;;0.30;0.30;;;5.90;99.90;;;;;;4975553;28;20254;-66
2023/11/04 07:10:14;;;;;;;0.30;0.30;;;5.90;99.90;;;;;;4976157;28;20238;-67
2023/11/04 07:12:40;;;;;;;0.40;0.40;;;6.00;99.90;;;;;;4959540;28;20423;-64
2023/11/04 07:15:06;;;;;;;0.30;0.30;;;6.10;99.90;;;;;;4975063;28;20221;-66
2023/11/04 07:17:32;;;;;;;0.30;0.30;;;6.30;99.90;;;;;;4976749;28;20169;-66
2023/11/04 07:19:57;;;;;;;0.30;0.30;;;6.40;99.90;;;;;;4976870;28;20185;-68
2023/11/04 07:22:24;;;;;;;0.30;0.30;;;6.60;99.90;;;;;;4976479;28;20193;-66
2023/11/04 07:24:49;;;;;;;0.30;0.30;;;6.80;99.90;;;;;;4958429;28;20712;-67
2023/11/04 07:27:15;;;;;;;0.30;0.20;;;6.90;99.90;;;;;;4976253;28;20274;-69
2023/11/04 07:29:41;;;;;;;0.30;0.30;;;7.10;99.90;;;;;;4975909;28;20522;-66
2023/11/04 07:32:07;;;;;;;0.30;0.30;;;7.20;99.90;;;;;;4973602;28;20183;-67
2023/11/04 07:34:33;;;;;;;0.30;0.30;;;7.40;99.90;;;;;;4976108;28;20412;-63
2023/11/04 07:37:00;;;;;;;0.30;0.30;;;7.60;99.90;;;;;;4975940;28;20453;-64
2023/11/04 07:39:27;;;;;;;0.30;0.20;;;8.20;99.90;;;;;;4963722;28;20177;-64
2023/11/04 07:41:53;;;;;;;0.30;0.30;;;9.00;99.90;;;;;;4956439;28;20191;-67
2023/11/04 07:44:20;;;;;;;0.30;0.30;;;9.80;99.90;;;;;;4975762;28;20550;-65
2023/11/04 07:46:46;;;;;;;0.30;0.20;;;10.40;99.90;;;;;;4962931;28;20820;-64
2023/11/04 07:49:13;;;;;;;0.30;0.20;;;10.80;99.90;;;;;;4976217;28;20445;-65
2023/11/04 07:51:39;;;;;;;0.30;0.30;;;11.00;99.90;;;;;;4975804;28;20231;-64
2023/11/04 07:54:05;;;;;;;0.30;0.20;;;11.00;99.90;;;;;;4975915;28;20516;-65
2023/11/04 07:56:30;;;;;;;0.30;0.20;;;10.90;99.90;;;;;;4975547;28;20195;-64
2023/11/04 07:58:56;;;;;;;0.30;0.20;;;10.90;99.90;;;;;;4975992;28;20403;-66
2023/11/04 08:01:21;;;;;;;0.30;0.20;;;11.10;99.90;;;;;;4965740;28;20219;-68
2023/11/04 08:03:47;;;;;;;0.30;0.20;;;11.40;99.90;;;;;;4960155;28;20274;-67
2023/11/04 08:06:16;;;;;;;0.30;0.30;;;11.80;99.90;;;;;;4941645;29;20227;-68
2023/11/04 08:08:42;;;;;;;0.30;0.30;;;12.10;99.90;;;;;;4956424;29;20169;-68
2023/11/04 08:11:08;;;;;;;0.30;0.20;;;12.30;99.90;;;;;;4939140;29;20456;-68
2023/11/04 08:13:34;;;;;;;0.30;0.30;;;12.70;99.90;;;;;;4975287;28;20478;-64
2023/11/04 08:15:59;;;;;;;0.30;0.30;;;13.30;99.90;;;;;;4971108;28;20661;-66
2023/11/04 08:18:31;;;;;;;0.30;0.30;;;13.60;99.90;;;;;;4960862;28;20194;-65
2023/11/04 08:20:57;;;;;;;0.30;0.20;;;14.00;99.90;;;;;;4973545;28;20177;-64
2023/11/04 08:23:22;;;;;;;0.30;0.20;;;14.40;99.90;;;;;;4975309;28;20772;-63
2023/11/04 08:25:48;;;;;;;0.30;0.20;;;15.10;99.90;;;;;;4974662;28;20430;-64
2023/11/04 08:28:14;;;;;;;0.30;0.20;;;15.90;99.40;;;;;;4975528;28;20181;-66
2023/11/04 08:30:40;;;;;;;0.30;0.20;;;16.50;96.40;;;;;;4973502;28;20227;-62
2023/11/04 08:33:05;;;;;;;0.30;0.20;;;17.10;97.20;;;;;;4957293;28;20205;-65
2023/11/04 08:35:31;;;;;;;0.30;0.20;;;17.90;95.10;;;;;;4971899;28;20443;-63
2023/11/04 08:37:57;;;;;;;0.30;0.20;;;18.40;93.60;;;;;;4973501;28;20706;-66
2023/11/04 08:40:22;;;;;;;0.30;0.30;;;18.90;93.30;;;;;;4975231;28;20218;-74
2023/11/04 08:42:48;;;;;;;0.30;0.20;;;19.30;91.20;;;;;;4957814;28;20169;-68
2023/11/04 08:45:14;;;;;;;0.30;0.30;;;19.70;89.40;;;;;;4973105;28;20674;-68
2023/11/04 08:47:40;;;;;;;0.30;0.20;;;19.80;88.70;;;;;;4955842;29;20642;-68
2023/11/04 08:50:07;;;;;;;0.30;0.30;;;19.60;88.50;;;;;;4970464;28;20650;-64
2023/11/04 08:52:33;;;;;;;0.30;0.20;;;18.90;84.60;;;;;;4974765;28;20956;-63
2023/11/04 08:55:01;;;;;;;0.30;0.30;;;18.30;87.50;;;;;;4974715;28;20519;-65
2023/11/04 08:57:27;;;;;;;0.30;0.30;;;17.90;88.80;;;;;;4974717;28;20184;-68
2023/11/04 08:59:53;;;;;;;0.30;0.20;;;17.40;88.30;;;;;;4953686;29;20528;-66
2023/11/04 09:02:20;;;;;;;0.30;0.30;;;16.70;89.20;;;;;;4956358;28;20532;-65
2023/11/04 09:04:46;;;;;;;0.30;0.30;;;16.10;90.30;;;;;;4969376;28;20216;-66
2023/11/04 09:07:12;;;;;;;0.30;0.30;;;15.50;91.20;;;;;;4968207;28;20421;-67
2023/11/04 09:09:38;;;;;;;0.30;0.30;;;15.10;92.20;;;;;;4955335;29;20207;-66
2023/11/04 09:12:04;;;;;;;0.30;0.30;;;14.80;92.50;;;;;;4955361;29;20419;-67
2023/11/04 09:14:29;;;;;;;0.30;0.20;;;14.60;93.30;;;;;;4957900;28;20185;-66
2023/11/04 09:16:55;;;;;;;0.30;0.20;;;14.50;93.70;;;;;;4971060;28;20445;-64
2023/11/04 09:19:21;;;;;;;0.30;0.20;;;14.50;93.70;;;;;;4970987;28;20182;-64
2023/11/04 09:21:47;;;;;;;0.30;0.20;;;14.30;94.00;;;;;;4953517;28;20209;-64
2023/11/04 09:24:13;;;;;;;0.30;0.20;;;14.40;94.20;;;;;;4971332;28;20449;-65
2023/11/04 09:26:38;;;;;;;0.30;0.20;;;14.70;94.20;;;;;;4972402;28;20200;-64
2023/11/04 09:29:05;;;;;;;0.30;0.20;;;14.90;93.70;;;;;;4972344;28;20672;-67
2023/11/04 09:31:30;;;;;;;0.30;0.30;;;15.10;93.60;;;;;;4973564;28;20202;-65
2023/11/04 09:33:56;;;;;;;0.40;0.40;;;15.10;93.50;;;;;;4956777;28;20430;-65
2023/11/04 09:36:22;;;;;;;0.30;0.30;;;15.40;93.60;;;;;;4974390;28;20539;-64
2023/11/04 09:38:47;;;;;;;0.30;0.30;;;15.60;93.60;;;;;;4973625;28;20279;-65
2023/11/04 09:41:13;;;;;;;0.30;0.30;;;16.00;92.80;;;;;;4974089;28;20188;-66
2023/11/04 09:43:39;;;;;;;0.30;0.20;;;16.30;92.80;;;;;;4974592;28;20177;-65
2023/11/04 09:46:07;;;;;;;0.30;0.20;;;16.60;91.30;;;;;;4973999;28;20666;-65
2023/11/04 09:48:37;;;;;;;0.30;0.30;;;16.50;91.40;;;;;;4956977;28;20510;-65
2023/11/04 09:51:06;;;;;;;0.30;0.30;;;16.40;91.20;;;;;;4974407;28;20467;-66
2023/11/04 09:53:32;;;;;;;0.30;0.20;;;16.20;91.60;;;;;;4974464;28;20408;-64
2023/11/04 09:55:58;;;;;;;0.30;0.20;;;16.30;91.60;;;;;;4956383;28;20440;-65
2023/11/04 09:58:25;;;;;;;0.30;0.30;;;16.20;91.30;;;;;;4974472;28;20462;-64
2023/11/04 10:00:51;;;;;;;0.30;0.30;;;16.30;91.70;;;;;;4974935;28;20211;-64
2023/11/04 10:03:17;;;;;;;0.30;0.20;;;16.40;92.10;;;;;;4974239;28;20970;-63
2023/11/04 10:05:46;;;;;;;0.30;0.30;;;16.60;91.70;;;;;;4974564;28;20526;-64
2023/11/04 10:08:13;;;;;;;0.30;0.30;;;16.80;90.90;;;;;;4974480;28;20207;-66
2023/11/04 10:10:39;;;;;;;0.30;0.20;;;16.80;90.70;;;;;;4974018;28;20543;-67
2023/11/04 10:13:05;;;;;;;0.30;0.30;;;16.60;90.30;;;;;;4974307;28;20259;-65
2023/11/04 10:15:31;;;;;;;0.30;0.20;;;16.40;90.50;;;;;;4973678;28;20222;-68
2023/11/04 10:17:56;;;;;;;0.30;0.30;;;16.20;90.90;;;;;;4974070;28;20203;-65
2023/11/04 10:20:22;;;;;;;0.30;0.20;;;16.00;91.50;;;;;;4974377;28;20445;-66
2023/11/04 10:22:48;;;;;;;0.30;0.30;;;15.80;91.80;;;;;;4974297;28;20223;-65
2023/11/04 10:25:14;;;;;;;0.30;0.20;;;15.70;91.70;;;;;;4973202;28;20729;-66
2023/11/04 10:27:40;;;;;;;0.30;0.30;;;15.50;92.10;;;;;;4956883;28;20514;-63
2023/11/04 10:30:10;;;;;;;0.30;0.27;;;15.40;91.90;;;;;;4974249;28;20456;-66
2023/11/04 10:32:38;;;;;;;0.30;0.30;;;15.20;92.00;;;;;;4973965;28;20431;-66
2023/11/04 10:35:09;;;;;;;0.30;0.30;;;15.00;92.50;;;;;;4973751;28;20459;-66
2023/11/04 10:37:36;;;;;;;0.30;0.30;;;14.70;92.70;;;;;;4974188;28;20769;-64
2023/11/04 10:40:06;;;;;;;0.30;0.30;;;14.50;92.80;;;;;;4974167;28;20854;-66
2023/11/04 10:42:36;;;;;;;0.30;0.30;;;14.20;93.00;;;;;;4974007;28;20394;-63
2023/11/04 10:45:12;;;;;;;0.30;0.30;;;13.90;93.40;;;;;;4973531;28;20446;-65
2023/11/04 10:48:01;;;;;;;0.30;0.20;;;13.50;93.70;;;;;;4973748;28;20509;-66
2023/11/04 10:50:38;;;;;;;0.30;0.30;;;13.20;94.20;;;;;;4976895;28;20462;-65
2023/11/04 10:53:22;;;;;;;0.30;0.30;;;13.00;94.80;;;;;;4977487;28;20421;-65
2023/11/04 10:55:56;;;;;;;0.30;0.20;;;12.90;94.60;;;;;;4976881;28;20427;-67
2023/11/04 10:58:33;;;;;;;0.30;0.20;;;12.70;94.20;;;;;;4977572;28;20453;-65
2023/11/04 11:01:00;;;;;;;2.20;0.63;;;12.60;94.90;;;;;;4977842;28;20897;-64
2023/11/04 11:03:28;;;;;;;0.30;0.30;;;12.50;95.50;;;;;;4976821;28;20831;-64
2023/11/04 11:05:55;;;;;;;0.30;0.30;;;12.50;94.50;;;;;;4959182;28;20533;-67
2023/11/04 11:08:22;;;;;;;0.30;0.20;;;12.50;94.70;;;;;;4977720;28;20857;-65
2023/11/04 11:10:56;;;;;;;0.30;0.20;;;12.40;94.90;;;;;;4977162;28;20812;-64
2023/11/04 11:13:25;;;;;;;0.30;0.30;;;12.40;94.80;;;;;;4977528;28;20401;-65
2023/11/04 11:15:51;;;;;;;0.30;0.30;;;12.40;95.10;;;;;;4977503;28;20442;-67
2023/11/04 11:18:27;;;;;;;0.30;0.30;;;12.30;95.00;;;;;;4980270;28;20992;-65
2023/11/04 11:20:53;;;;;;;0.30;0.30;;;12.30;95.20;;;;;;4983667;28;20414;-64
2023/11/04 11:23:30;;;;;;;0.30;0.30;;;12.40;95.40;;;;;;4963730;28;20441;-64
2023/11/04 11:26:08;;;;;;;0.30;0.30;;;12.50;95.60;;;;;;4978295;28;20226;-67
2023/11/04 11:28:41;;;;;;;0.30;0.30;;;12.70;95.60;;;;;;4978456;28;20505;-64
2023/11/04 11:31:11;;;;;;;0.30;0.20;;;13.00;95.60;;;;;;4977922;28;20884;-65
2023/11/04 11:33:40;;;;;;;0.30;0.20;;;13.20;94.40;;;;;;4959523;28;20430;-67
2023/11/04 11:36:09;;;;;;;0.30;0.20;;;13.10;94.80;;;;;;4976123;28;20443;-64
2023/11/04 11:38:36;;;;;;;0.30;0.30;;;13.10;95.00;;;;;;4977253;28;20415;-63
2023/11/04 11:41:16;;;;;;;0.30;0.30;;;13.00;94.30;;;;;;4977837;28;20428;-67
2023/11/04 11:43:48;;;;;;;0.30;0.30;;;12.90;94.60;;;;;;4976410;28;20419;-64
2023/11/04 11:46:13;;;;;;;0.30;0.30;;;12.90;94.90;;;;;;4976377;28;20845;-64
2023/11/04 11:48:41;;;;;;;0.30;0.30;;;12.80;94.80;;;;;;4976951;28;20534;-66
2023/11/04 11:51:10;;;;;;;0.30;0.30;;;12.80;95.20;;;;;;4976987;28;20290;-65
2023/11/04 11:53:36;;;;;;;0.30;0.30;;;12.70;94.90;;;;;;4976845;28;20418;-64
2023/11/04 11:56:02;;;;;;;0.30;0.20;;;12.70;94.10;;;;;;4975653;28;20836;-66
2023/11/04 11:58:28;;;;;;;0.30;0.20;;;12.70;94.90;;;;;;4976627;28;20414;-65
2023/11/04 12:00:58;;;;;;;0.30;0.20;;;12.60;94.90;;;;;;4975809;28;20492;-66
2023/11/04 12:03:24;;;;;;;0.30;0.30;;;12.60;95.50;;;;;;4976550;28;20888;-66
2023/11/04 12:05:52;;;;;;;0.30;0.30;;;12.50;95.00;;;;;;4976338;28;20449;-65
2023/11/04 12:08:19;;;;;;;0.30;0.20;;;12.40;95.20;;;;;;4976591;28;20445;-67
2023/11/04 12:10:45;;;;;;;0.30;0.30;;;12.40;94.60;;;;;;4975682;28;20989;-64
2023/11/04 12:13:11;;;;;;;0.30;0.20;;;12.30;94.70;;;;;;4975657;28;20493;-64
2023/11/04 12:15:37;;;;;;;0.30;0.20;;;12.20;95.10;;;;;;4975451;28;20225;-64
2023/11/04 12:18:06;;;;;;;0.30;0.30;;;12.10;95.20;;;;;;4975654;28;20896;-65
2023/11/04 12:20:32;;;;;;;0.30;0.30;;;12.00;95.50;;;;;;4975622;28;20556;-64
2023/11/04 12:23:00;;;;;;;0.30;0.30;;;11.90;95.40;;;;;;4975382;28;20777;-65
2023/11/04 12:25:26;;;;;;;0.30;0.20;;;11.80;95.70;;;;;;4974426;28;20485;-65
2023/11/04 12:27:52;;;;;;;0.30;0.20;;;11.70;95.80;;;;;;4975107;28;20493;-65
2023/11/04 12:30:19;;;;;;;0.30;0.30;;;11.70;95.80;;;;;;4975126;28;20836;-68
2023/11/04 12:32:49;;;;;;;0.30;0.30;;;11.70;95.70;;;;;;4975253;28;20552;-64
2023/11/04 12:35:16;;;;;;;0.30;0.20;;;11.60;96.00;;;;;;4974746;28;20744;-63
2023/11/04 12:37:42;;;;;;;0.50;0.40;;;11.60;96.10;;;;;;4975482;28;20421;-65
2023/11/04 12:40:09;;;;;;;0.30;0.20;;;11.60;96.10;;;;;;4957516;28;20433;-63
2023/11/04 12:42:35;;;;;;;0.30;0.20;;;11.60;96.00;;;;;;4975352;28;20187;-64
2023/11/04 12:45:01;;;;;;;0.30;0.30;;;11.60;94.80;;;;;;4974819;28;20442;-67
2023/11/04 12:47:28;;;;;;;0.30;0.30;;;11.60;94.50;;;;;;4975344;28;20237;-66
2023/11/04 12:49:53;;;;;;;0.30;0.28;;;11.60;94.90;;;;;;4974857;28;20201;-64
2023/11/04 12:52:19;;;;;;;0.30;0.30;;;11.60;94.90;;;;;;4957614;28;20182;-66
2023/11/04 12:54:48;;;;;;;0.30;0.20;;;11.60;94.70;;;;;;4957411;28;20640;-63
2023/11/04 12:57:18;;;;;;;0.30;0.30;;;11.60;94.90;;;;;;4975029;28;20413;-62
2023/11/04 12:59:43;;;;;;;0.30;0.30;;;11.60;94.50;;;;;;4974845;28;20377;-63
2023/11/04 13:02:09;;;;;;;0.30;0.30;;;11.70;94.60;;;;;;4974818;28;20996;-63
2023/11/04 13:04:35;;;;;;;0.30;0.20;;;11.70;95.00;;;;;;4956658;28;20642;-64
2023/11/04 13:07:01;;;;;;;0.30;0.30;;;11.70;95.40;;;;;;4974146;28;20634;-60
2023/11/04 13:09:30;;;;;;;0.30;0.30;;;11.60;95.80;;;;;;4974465;28;20815;-63
2023/11/04 13:11:57;;;;;;;0.30;0.20;;;11.60;96.10;;;;;;4974570;28;20409;-62
2023/11/04 13:14:27;;;;;;;0.40;0.40;;;11.50;96.00;;;;;;4974400;28;20419;-61
2023/11/04 13:16:54;;;;;;;0.40;0.40;;;11.50;96.20;;;;;;4957172;28;20204;-61
2023/11/04 13:19:20;;;;;;;0.30;0.30;;;11.50;96.50;;;;;;4974519;28;20588;-61
2023/11/04 13:21:47;;;;;;;0.30;0.20;;;11.40;96.40;;;;;;4973676;28;20272;-61
2023/11/04 13:24:15;;;;;;;0.30;0.25;;;11.30;96.40;;;;;;4974137;28;20275;-61
2023/11/04 13:26:41;;;;;;;0.30;0.20;;;11.20;96.30;;;;;;4974562;28;20283;-62
2023/11/04 13:29:07;;;;;;;0.30;0.30;;;11.10;96.80;;;;;;4974389;28;20216;-62
2023/11/04 13:31:33;;;;;;;0.30;0.30;;;10.90;96.70;;;;;;4956858;28;20584;-61
2023/11/04 13:33:59;;;;;;;0.30;0.30;;;10.80;96.60;;;;;;4973928;28;20172;-64
2023/11/04 13:36:25;;;;;;;0.30;0.30;;;10.70;97.00;;;;;;4973918;28;20200;-64
2023/11/04 13:38:51;;;;;;;0.30;0.30;;;10.60;97.90;;;;;;4974944;28;20701;-61
2023/11/04 13:41:17;;;;;;;0.30;0.30;;;10.50;98.70;;;;;;4974681;28;20220;-63
2023/11/04 13:43:43;;;;;;;0.30;0.30;;;10.30;99.20;;;;;;4974333;28;20283;-67
2023/11/04 13:46:09;;;;;;;0.30;0.30;;;10.20;99.30;;;;;;4974248;28;20709;-62
2023/11/04 13:48:34;;;;;;;0.40;0.40;;;10.20;99.40;;;;;;4974416;28;20168;-63
2023/11/04 13:51:01;;;;;;;0.30;0.30;;;10.10;99.60;;;;;;4974125;28;20204;-64
2023/11/04 13:53:26;;;;;;;0.30;0.30;;;10.10;99.90;;;;;;4974173;28;20172;-60
2023/11/04 13:55:53;;;;;;;0.30;0.30;;;10.00;99.90;;;;;;4973846;28;20278;-61
2023/11/04 13:58:18;;;;;;;0.30;0.30;;;10.00;99.80;;;;;;4974416;28;20179;-63
2023/11/04 14:00:44;;;;;;;0.30;0.30;;;10.00;99.90;;;;;;4974049;28;20187;-65
2023/11/04 14:03:12;;;;;;;0.30;0.20;;;10.00;99.80;;;;;;4973280;28;20191;-64
2023/11/04 14:05:38;;;;;;;0.30;0.20;;;10.10;99.80;;;;;;4973333;28;20450;-64
2023/11/04 14:08:04;;;;;;;0.30;0.30;;;10.20;99.90;;;;;;4973858;28;20484;-64
2023/11/04 14:10:29;;;;;;;0.30;0.20;;;10.30;99.90;;;;;;4974159;28;20195;-63
2023/11/04 14:12:55;;;;;;;0.30;0.20;;;10.20;99.90;;;;;;4974785;28;20179;-62
2023/11/04 14:15:21;;;;;;;0.30;0.30;;;10.20;99.90;;;;;;4973861;28;20188;-63
2023/11/04 14:17:47;;;;;;;0.30;0.30;;;10.20;99.90;;;;;;4973997;28;20211;-61
2023/11/04 14:20:15;;;;;;;0.30;0.30;;;10.10;99.90;;;;;;4974266;28;20172;-62
2023/11/04 14:22:41;;;;;;;0.30;0.30;;;10.10;99.90;;;;;;4974017;28;20313;-62
2023/11/04 14:25:09;;;;;;;0.30;0.30;;;10.10;99.90;;;;;;4976168;28;20196;-64
2023/11/04 14:27:35;;;;;;;0.30;0.30;;;10.20;99.90;;;;;;4977679;28;20191;-61
2023/11/04 14:30:01;;;;;;;0.30;0.20;;;10.20;99.90;;;;;;4977299;28;20741;-62
2023/11/04 14:32:27;;;;;;;0.30;0.30;;;10.20;99.90;;;;;;4978056;28;20415;-62
2023/11/04 14:34:53;;;;;;;0.30;0.20;;;10.30;99.90;;;;;;4977286;28;20593;-61
2023/11/04 14:37:18;;;;;;;0.30;0.30;;;10.30;99.90;;;;;;4977682;28;20165;-62
2023/11/04 14:39:44;;;;;;;0.30;0.30;;;10.30;99.90;;;;;;4977648;28;20204;-63
2023/11/04 14:42:10;;;;;;;0.30;0.30;;;10.20;99.90;;;;;;4977715;28;20172;-63
2023/11/04 14:44:41;;;;;;;0.30;0.30;;;10.10;99.90;;;;;;4977034;28;20233;-63
2023/11/04 14:47:07;;;;;;;0.40;0.40;;;10.10;99.90;;;;;;4977283;28;20177;-65
2023/11/04 14:49:33;;;;;;;0.30;0.30;;;10.10;99.90;;;;;;4977373;28;20175;-66
2023/11/04 14:51:58;;;;;;;0.30;0.20;;;10.10;99.90;;;;;;4959787;28;20259;-64
2023/11/04 14:54:25;;;;;;;0.30;0.20;;;10.10;99.90;;;;;;4976990;28;20676;-62
2023/11/04 14:56:50;;;;;;;0.30;0.30;;;10.20;99.90;;;;;;4977290;28;20180;-63
2023/11/04 14:59:16;;;;;;;0.30;0.30;;;10.30;99.90;;;;;;4977563;28;20195;-62
2023/11/04 15:01:45;;;;;;;0.30;0.30;;;10.30;99.90;;;;;;4976793;28;20234;-63
2023/11/04 15:04:12;;;;;;;0.30;0.30;;;10.40;99.90;;;;;;4976192;28;20193;-61
2023/11/04 15:06:38;;;;;;;0.30;0.30;;;10.40;99.90;;;;;;4976719;28;20203;-64
2023/11/04 15:09:08;;;;;;;0.30;0.30;;;10.40;99.90;;;;;;4977255;28;20638;-64
2023/11/04 15:11:35;;;;;;;0.30;0.30;;;10.50;99.90;;;;;;4976284;28;20212;-64
2023/11/04 15:14:01;;;;;;;0.30;0.30;;;10.50;99.90;;;;;;4976338;28;20176;-61
2023/11/04 15:16:27;;;;;;;0.30;0.30;;;10.60;99.90;;;;;;4976637;28;20553;-61
2023/11/04 15:18:53;;;;;;;0.30;0.20;;;10.60;99.90;;;;;;4976844;28;20195;-62
2023/11/04 15:21:18;;;;;;;0.30;0.30;;;10.60;99.90;;;;;;4959383;28;20184;-63
2023/11/04 15:23:44;;;;;;;0.30;0.30;;;10.60;99.90;;;;;;4976513;28;20257;-64
2023/11/04 15:26:10;;;;;;;0.30;0.30;;;10.60;99.90;;;;;;4976367;28;20558;-63
2023/11/04 15:28:35;;;;;;;0.30;0.20;;;10.60;99.90;;;;;;4959201;28;20172;-63
2023/11/04 15:31:01;;;;;;;0.30;0.30;;;10.60;99.90;;;;;;4976267;28;20303;-62
2023/11/04 15:33:26;;;;;;;0.30;0.30;;;10.30;99.90;;;;;;4976680;28;20172;-62
2023/11/04 15:35:52;;;;;;;0.30;0.30;;;10.00;99.90;;;;;;4974884;28;20192;-62
2023/11/04 15:38:18;;;;;;;0.30;0.30;;;9.80;99.90;;;;;;4976249;28;20207;-62
2023/11/04 15:40:43;;;;;;;0.30;0.30;;;9.60;99.90;;;;;;4976526;28;20179;-61
2023/11/04 15:43:10;;;;;;;0.30;0.30;;;9.50;99.90;;;;;;4976309;28;20262;-63
2023/11/04 15:45:37;;;;;;;0.30;0.30;;;9.40;99.90;;;;;;4976039;28;20208;-63
2023/11/04 15:48:03;;;;;;;0.30;0.30;;;9.30;99.90;;;;;;4976403;28;20223;-61
2023/11/04 15:50:29;;;;;;;0.35;0.35;;;9.30;99.90;;;;;;4976138;28;20286;-61
2023/11/04 15:52:55;;;;;;;0.30;0.30;;;9.30;99.90;;;;;;4975917;28;20198;-61
2023/11/04 15:55:21;;;;;;;0.30;0.30;;;9.30;99.90;;;;;;4975544;28;20192;-61
2023/11/04 15:57:48;;;;;;;0.30;0.30;;;9.30;99.90;;;;;;4975798;28;20498;-63
2023/11/04 16:00:14;;;;;;;0.30;0.30;;;9.40;99.90;;;;;;4975722;28;20266;-63
2023/11/04 16:02:40;;;;;;;0.30;0.30;;;9.50;99.90;;;;;;4976187;28;20234;-62
2023/11/04 16:05:06;;;;;;;0.30;0.30;;;9.50;99.90;;;;;;4975454;28;20256;-62
2023/11/04 16:07:32;;;;;;;0.30;0.30;;;9.60;99.90;;;;;;4975766;28;20192;-62
2023/11/04 16:09:57;;;;;;;0.30;0.30;;;9.60;99.90;;;;;;4975663;28;20343;-62
2023/11/04 16:12:23;;;;;;;0.30;0.20;;;9.60;99.90;;;;;;4976032;28;20176;-63
2023/11/04 16:14:50;;;;;;;0.30;0.23;;;9.70;99.90;;;;;;4975210;28;20566;-63
2023/11/04 16:17:15;;;;;;;0.30;0.20;;;9.80;99.90;;;;;;4975863;28;20164;-62
2023/11/04 16:19:41;;;;;;;0.30;0.20;;;9.80;99.90;;;;;;4958535;28;20192;-63
2023/11/04 16:22:06;;;;;;;0.30;0.30;;;9.90;99.90;;;;;;4975587;28;20172;-59
2023/11/04 16:24:32;;;;;;;0.30;0.30;;;9.90;99.90;;;;;;4975015;28;20175;-61
2023/11/04 16:26:58;;;;;;;0.30;0.30;;;9.90;99.90;;;;;;4975670;28;20196;-62
2023/11/04 16:29:23;;;;;;;0.30;0.20;;;9.90;99.90;;;;;;4974838;28;20587;-62
2023/11/04 16:31:49;;;;;;;0.30;0.27;;;10.00;99.90;;;;;;4975440;28;20294;-61
2023/11/04 16:34:14;;;;;;;0.30;0.23;;;10.00;99.90;;;;;;4973066;28;20188;-66
2023/11/04 16:36:40;;;;;;;0.30;0.30;;;10.00;99.90;;;;;;4959082;28;20204;-63
2023/11/04 16:39:07;;;;;;;0.30;0.20;;;10.10;99.90;;;;;;4973621;28;20176;-65
2023/11/04 16:41:32;;;;;;;0.30;0.30;;;10.00;99.90;;;;;;4975093;28;20196;-60
2023/11/04 16:43:58;;;;;;;0.30;0.30;;;10.10;99.90;;;;;;4966969;28;20337;-62
2023/11/04 16:46:24;;;;;;;0.30;0.30;;;10.10;99.90;;;;;;4974639;28;20192;-62
2023/11/04 16:48:50;;;;;;;0.30;0.30;;;10.00;99.90;;;;;;4974943;28;20259;-61
2023/11/04 16:51:15;;;;;;;0.30;0.30;;;10.00;99.90;;;;;;4974743;28;20302;-61